sensor_id;sensor_type;location;lat;lon;timestamp;pressure;altitude;pressure_sealevel;temperature;humidity
38054;BME280;23859;50.672;7.164;2023-12-20T00:00:22;36054.84;;;-140.95;86.04
38054;BME280;23859;50.672;7.164;2023-12-20T00:02:48;36022.69;;;-140.95;85.88
38054;BME280;23859;50.672;7.164;2023-12-20T00:05:15;36036.75;;;-140.95;86.38
38054;BME280;23859;50.672;7.164;2023-12-20T00:07:41;36022.69;;;-140.95;86.32
38054;BME280;23859;50.672;7.164;2023-12-20T00:10:10;36042.78;;;-140.95;86.05
38054;BME280;23859;50.672;7.164;2023-12-20T00:12:38;36036.75;;;-140.95;86.31
38054;BME280;23859;50.672;7.164;2023-12-20T00:15:05;36297.97;;;-140.95;86.87
38054;BME280;23859;50.672;7.164;2023-12-20T00:17:31;36068.91;;;-140.95;86.70
38054;BME280;23859;50.672;7.164;2023-12-20T00:19:57;36056.84;;;-140.95;86.79
38054;BME280;23859;50.672;7.164;2023-12-20T00:22:23;36036.75;;;-140.95;86.96
38054;BME280;23859;50.672;7.164;2023-12-20T00:24:52;36028.72;;;-140.95;86.94
38054;BME280;23859;50.672;7.164;2023-12-20T00:27:18;36070.91;;;-140.95;87.01
38054;BME280;23859;50.672;7.164;2023-12-20T00:29:44;36056.84;;;-140.95;86.98
38054;BME280;23859;50.672;7.164;2023-12-20T00:32:16;36040.78;;;-140.95;87.18
38054;BME280;23859;50.672;7.164;2023-12-20T00:34:43;36044.78;;;-140.95;87.26
38054;BME280;23859;50.672;7.164;2023-12-20T00:37:09;36038.75;;;-140.95;87.31
38054;BME280;23859;50.672;7.164;2023-12-20T00:39:35;36046.78;;;-140.95;87.01
38054;BME280;23859;50.672;7.164;2023-12-20T00:42:01;36044.78;;;-140.95;87.34
38054;BME280;23859;50.672;7.164;2023-12-20T00:44:30;36022.69;;;-140.95;87.33
38054;BME280;23859;50.672;7.164;2023-12-20T00:46:56;36062.88;;;-140.95;87.31
38054;BME280;23859;50.672;7.164;2023-12-20T00:49:22;36052.81;;;-140.95;87.19
38054;BME280;23859;50.672;7.164;2023-12-20T00:51:50;36054.84;;;-140.95;87.33
38054;BME280;23859;50.672;7.164;2023-12-20T00:54:20;36064.88;;;-140.95;87.44
38054;BME280;23859;50.672;7.164;2023-12-20T00:56:46;36046.78;;;-140.95;87.45
38054;BME280;23859;50.672;7.164;2023-12-20T00:59:12;36093.00;;;-140.95;87.29
38054;BME280;23859;50.672;7.164;2023-12-20T01:01:38;36052.81;;;-140.95;87.10
38054;BME280;23859;50.672;7.164;2023-12-20T01:04:04;36040.78;;;-140.95;87.19
38054;BME280;23859;50.672;7.164;2023-12-20T01:06:31;36016.66;;;-140.95;87.17
38054;BME280;23859;50.672;7.164;2023-12-20T01:08:57;36038.75;;;-140.95;86.96
38054;BME280;23859;50.672;7.164;2023-12-20T01:11:23;36068.91;;;-140.95;86.68
38054;BME280;23859;50.672;7.164;2023-12-20T01:13:49;36048.81;;;-140.95;86.41
38054;BME280;23859;50.672;7.164;2023-12-20T01:16:15;36048.81;;;-140.95;86.61
38054;BME280;23859;50.672;7.164;2023-12-20T01:18:41;36028.72;;;-140.95;86.00
38054;BME280;23859;50.672;7.164;2023-12-20T01:21:07;36008.63;;;-140.95;86.13
38054;BME280;23859;50.672;7.164;2023-12-20T01:23:35;35996.56;;;-140.95;85.74
38054;BME280;23859;50.672;7.164;2023-12-20T01:26:01;36052.81;;;-140.95;85.66
38054;BME280;23859;50.672;7.164;2023-12-20T01:28:28;36012.63;;;-140.95;85.85
38054;BME280;23859;50.672;7.164;2023-12-20T01:30:54;36020.69;;;-140.95;85.81
38054;BME280;23859;50.672;7.164;2023-12-20T01:33:20;36042.78;;;-140.95;86.02
38054;BME280;23859;50.672;7.164;2023-12-20T01:35:46;36018.66;;;-140.95;85.88
38054;BME280;23859;50.672;7.164;2023-12-20T01:38:12;36036.75;;;-140.95;85.67
38054;BME280;23859;50.672;7.164;2023-12-20T01:40:38;36016.66;;;-140.95;85.43
38054;BME280;23859;50.672;7.164;2023-12-20T01:43:08;36000.59;;;-140.95;85.30
38054;BME280;23859;50.672;7.164;2023-12-20T01:45:35;36010.63;;;-140.95;85.41
38054;BME280;23859;50.672;7.164;2023-12-20T01:48:01;36030.72;;;-140.95;85.17
38054;BME280;23859;50.672;7.164;2023-12-20T01:50:29;36008.63;;;-140.95;85.04
38054;BME280;23859;50.672;7.164;2023-12-20T01:52:56;36008.63;;;-140.95;84.79
38054;BME280;23859;50.672;7.164;2023-12-20T01:55:24;36040.78;;;-140.95;84.90
38054;BME280;23859;50.672;7.164;2023-12-20T01:57:51;36032.72;;;-140.95;84.94
38054;BME280;23859;50.672;7.164;2023-12-20T02:00:21;36004.59;;;-140.95;85.05
38054;BME280;23859;50.672;7.164;2023-12-20T02:02:53;36046.78;;;-140.95;85.48
38054;BME280;23859;50.672;7.164;2023-12-20T02:05:21;36012.63;;;-140.95;85.49
38054;BME280;23859;50.672;7.164;2023-12-20T02:07:48;36040.78;;;-140.95;85.49
38054;BME280;23859;50.672;7.164;2023-12-20T02:10:15;36028.72;;;-140.95;85.64
38054;BME280;23859;50.672;7.164;2023-12-20T02:12:41;36034.75;;;-140.95;85.72
38054;BME280;23859;50.672;7.164;2023-12-20T02:15:08;36016.66;;;-140.95;85.61
38054;BME280;23859;50.672;7.164;2023-12-20T02:17:37;36060.88;;;-140.95;85.37
38054;BME280;23859;50.672;7.164;2023-12-20T02:20:07;36036.75;;;-140.95;85.26
38054;BME280;23859;50.672;7.164;2023-12-20T02:22:35;36016.66;;;-140.95;85.39
38054;BME280;23859;50.672;7.164;2023-12-20T02:25:02;36020.69;;;-140.95;84.93
38054;BME280;23859;50.672;7.164;2023-12-20T02:27:28;36036.75;;;-140.95;84.54
38054;BME280;23859;50.672;7.164;2023-12-20T02:29:55;36070.91;;;-140.95;84.06
38054;BME280;23859;50.672;7.164;2023-12-20T02:32:21;36002.59;;;-140.95;83.03
38054;BME280;23859;50.672;7.164;2023-12-20T02:34:49;36072.91;;;-140.95;82.73
38054;BME280;23859;50.672;7.164;2023-12-20T02:37:15;36044.78;;;-140.95;82.17
38054;BME280;23859;50.672;7.164;2023-12-20T02:39:41;36056.84;;;-140.95;81.93
38054;BME280;23859;50.672;7.164;2023-12-20T02:42:07;36060.88;;;-140.95;81.73
38054;BME280;23859;50.672;7.164;2023-12-20T02:44:33;36068.91;;;-140.95;81.78
38054;BME280;23859;50.672;7.164;2023-12-20T02:47:00;36056.84;;;-140.95;81.21
38054;BME280;23859;50.672;7.164;2023-12-20T02:49:26;36082.97;;;-140.95;81.74
38054;BME280;23859;50.672;7.164;2023-12-20T02:51:54;36076.94;;;-140.95;81.86
38054;BME280;23859;50.672;7.164;2023-12-20T02:54:21;36229.66;;;-140.95;81.40
38054;BME280;23859;50.672;7.164;2023-12-20T02:56:47;36064.88;;;-140.95;80.65
38054;BME280;23859;50.672;7.164;2023-12-20T02:59:20;36111.09;;;-140.95;81.13
38054;BME280;23859;50.672;7.164;2023-12-20T03:01:47;36076.94;;;-140.95;81.74
38054;BME280;23859;50.672;7.164;2023-12-20T03:04:13;36127.16;;;-140.95;81.48
38054;BME280;23859;50.672;7.164;2023-12-20T03:06:39;36105.06;;;-140.95;82.31
38054;BME280;23859;50.672;7.164;2023-12-20T03:09:05;36143.25;;;-140.95;82.44
38054;BME280;23859;50.672;7.164;2023-12-20T03:11:31;36121.13;;;-140.95;82.26
38054;BME280;23859;50.672;7.164;2023-12-20T03:13:57;36133.19;;;-140.95;82.31
38054;BME280;23859;50.672;7.164;2023-12-20T03:16:24;36103.06;;;-140.95;80.75
38054;BME280;23859;50.672;7.164;2023-12-20T03:18:50;36103.06;;;-140.95;80.86
38054;BME280;23859;50.672;7.164;2023-12-20T03:21:16;36109.09;;;-140.95;81.59
38054;BME280;23859;50.672;7.164;2023-12-20T03:23:42;36109.09;;;-140.95;81.35
38054;BME280;23859;50.672;7.164;2023-12-20T03:26:09;36103.06;;;-140.95;81.39
38054;BME280;23859;50.672;7.164;2023-12-20T03:28:36;36143.25;;;-140.95;80.46
38054;BME280;23859;50.672;7.164;2023-12-20T03:31:03;36129.19;;;-140.95;80.89
38054;BME280;23859;50.672;7.164;2023-12-20T03:33:29;36072.91;;;-140.95;80.52
38054;BME280;23859;50.672;7.164;2023-12-20T03:35:55;36089.00;;;-140.95;80.01
38054;BME280;23859;50.672;7.164;2023-12-20T03:38:21;36121.13;;;-140.95;80.38
38054;BME280;23859;50.672;7.164;2023-12-20T03:40:50;36103.06;;;-140.95;80.07
38054;BME280;23859;50.672;7.164;2023-12-20T03:43:16;36115.13;;;-140.95;80.61
38054;BME280;23859;50.672;7.164;2023-12-20T03:45:45;36099.03;;;-140.95;80.94
38054;BME280;23859;50.672;7.164;2023-12-20T03:48:20;36080.97;;;-140.95;81.10
38054;BME280;23859;50.672;7.164;2023-12-20T03:50:46;36093.00;;;-140.95;81.76
38054;BME280;23859;50.672;7.164;2023-12-20T03:53:13;36113.09;;;-140.95;82.28
38054;BME280;23859;50.672;7.164;2023-12-20T03:55:41;36125.16;;;-140.95;82.27
38054;BME280;23859;50.672;7.164;2023-12-20T03:58:07;36169.38;;;-140.95;82.26
38054;BME280;23859;50.672;7.164;2023-12-20T04:00:33;36097.03;;;-140.95;81.63
38054;BME280;23859;50.672;7.164;2023-12-20T04:02:59;36135.22;;;-140.95;80.95
38054;BME280;23859;50.672;7.164;2023-12-20T04:05:26;36103.06;;;-140.95;79.88
38054;BME280;23859;50.672;7.164;2023-12-20T04:07:52;36070.91;;;-140.95;79.95
38054;BME280;23859;50.672;7.164;2023-12-20T04:10:18;36109.09;;;-140.95;79.66
38054;BME280;23859;50.672;7.164;2023-12-20T04:12:44;36105.06;;;-140.95;79.12
38054;BME280;23859;50.672;7.164;2023-12-20T04:15:12;36086.97;;;-140.95;79.06
38054;BME280;23859;50.672;7.164;2023-12-20T04:17:38;36080.97;;;-140.95;79.32
38054;BME280;23859;50.672;7.164;2023-12-20T04:20:05;36101.03;;;-140.95;79.39
38054;BME280;23859;50.672;7.164;2023-12-20T04:22:31;36113.09;;;-140.95;78.56
38054;BME280;23859;50.672;7.164;2023-12-20T04:24:57;36076.94;;;-140.95;79.25
38054;BME280;23859;50.672;7.164;2023-12-20T04:27:23;36089.00;;;-140.95;79.86
38054;BME280;23859;50.672;7.164;2023-12-20T04:29:49;36091.00;;;-140.95;79.48
38054;BME280;23859;50.672;7.164;2023-12-20T04:32:15;36086.97;;;-140.95;79.25
38054;BME280;23859;50.672;7.164;2023-12-20T04:34:41;36093.00;;;-140.95;79.50
38054;BME280;23859;50.672;7.164;2023-12-20T04:37:07;36072.91;;;-140.95;78.79
38054;BME280;23859;50.672;7.164;2023-12-20T04:39:33;36121.13;;;-140.95;77.86
38054;BME280;23859;50.672;7.164;2023-12-20T04:41:59;36089.00;;;-140.95;78.38
38054;BME280;23859;50.672;7.164;2023-12-20T04:44:28;36084.97;;;-140.95;78.46
38054;BME280;23859;50.672;7.164;2023-12-20T04:46:54;36101.03;;;-140.95;78.78
38054;BME280;23859;50.672;7.164;2023-12-20T04:49:22;36127.16;;;-140.95;79.14
38054;BME280;23859;50.672;7.164;2023-12-20T04:51:48;36074.94;;;-140.95;79.63
38054;BME280;23859;50.672;7.164;2023-12-20T04:54:15;36095.03;;;-140.95;80.20
38054;BME280;23859;50.672;7.164;2023-12-20T04:56:43;36109.09;;;-140.95;79.52
38054;BME280;23859;50.672;7.164;2023-12-20T04:59:09;36082.97;;;-140.95;79.18
38054;BME280;23859;50.672;7.164;2023-12-20T05:01:35;36113.09;;;-140.95;78.80
38054;BME280;23859;50.672;7.164;2023-12-20T05:04:02;36121.13;;;-140.95;78.60
38054;BME280;23859;50.672;7.164;2023-12-20T05:06:30;36082.97;;;-140.95;78.08
38054;BME280;23859;50.672;7.164;2023-12-20T05:08:56;36527.06;;;-140.95;78.35
38054;BME280;23859;50.672;7.164;2023-12-20T05:11:22;36105.06;;;-140.95;77.89
38054;BME280;23859;50.672;7.164;2023-12-20T05:13:48;36093.00;;;-140.95;79.16
38054;BME280;23859;50.672;7.164;2023-12-20T05:16:14;36084.97;;;-140.95;79.12
38054;BME280;23859;50.672;7.164;2023-12-20T05:18:41;36105.06;;;-140.95;79.60
38054;BME280;23859;50.672;7.164;2023-12-20T05:21:07;36121.13;;;-140.95;79.26
38054;BME280;23859;50.672;7.164;2023-12-20T05:23:33;36093.00;;;-140.95;79.31
38054;BME280;23859;50.672;7.164;2023-12-20T05:25:59;36137.22;;;-140.95;79.72
38054;BME280;23859;50.672;7.164;2023-12-20T05:28:27;36386.38;;;-140.95;79.92
38054;BME280;23859;50.672;7.164;2023-12-20T05:30:54;36101.03;;;-140.95;79.62
38054;BME280;23859;50.672;7.164;2023-12-20T05:33:20;36147.25;;;-140.95;79.10
38054;BME280;23859;50.672;7.164;2023-12-20T05:35:46;36123.16;;;-140.95;79.49
38054;BME280;23859;50.672;7.164;2023-12-20T05:38:12;36153.28;;;-140.95;79.58
38054;BME280;23859;50.672;7.164;2023-12-20T05:40:41;36099.03;;;-140.95;79.81
38054;BME280;23859;50.672;7.164;2023-12-20T05:43:07;36105.06;;;-140.95;79.45
38054;BME280;23859;50.672;7.164;2023-12-20T05:45:33;36121.13;;;-140.95;79.07
38054;BME280;23859;50.672;7.164;2023-12-20T05:47:59;36109.09;;;-140.95;79.65
38054;BME280;23859;50.672;7.164;2023-12-20T05:50:25;36163.34;;;-140.95;80.91
38054;BME280;23859;50.672;7.164;2023-12-20T05:52:51;36135.22;;;-140.95;81.19
38054;BME280;23859;50.672;7.164;2023-12-20T05:55:17;36169.38;;;-140.95;81.68
38054;BME280;23859;50.672;7.164;2023-12-20T05:57:43;36127.16;;;-140.95;81.68
38054;BME280;23859;50.672;7.164;2023-12-20T06:00:13;36145.25;;;-140.95;81.34
38054;BME280;23859;50.672;7.164;2023-12-20T06:02:39;36149.28;;;-140.95;80.18
38054;BME280;23859;50.672;7.164;2023-12-20T06:05:06;36109.09;;;-140.95;80.07
38054;BME280;23859;50.672;7.164;2023-12-20T06:07:32;36115.13;;;-140.95;78.70
38054;BME280;23859;50.672;7.164;2023-12-20T06:09:58;36145.25;;;-140.95;78.05
38054;BME280;23859;50.672;7.164;2023-12-20T06:12:24;36125.16;;;-140.95;77.70
38054;BME280;23859;50.672;7.164;2023-12-20T06:14:52;36101.03;;;-140.95;78.71
38054;BME280;23859;50.672;7.164;2023-12-20T06:17:18;36378.34;;;-140.95;79.74
38054;BME280;23859;50.672;7.164;2023-12-20T06:19:47;36129.19;;;-140.95;80.07
38054;BME280;23859;50.672;7.164;2023-12-20T06:22:14;36149.28;;;-140.95;80.29
38054;BME280;23859;50.672;7.164;2023-12-20T06:24:40;36390.41;;;-140.95;79.92
38054;BME280;23859;50.672;7.164;2023-12-20T06:27:07;36145.25;;;-140.95;79.78
38054;BME280;23859;50.672;7.164;2023-12-20T06:29:33;36123.16;;;-140.95;80.02
38054;BME280;23859;50.672;7.164;2023-12-20T06:32:03;36107.06;;;-140.95;80.24
38054;BME280;23859;50.672;7.164;2023-12-20T06:34:29;36145.25;;;-140.95;79.91
38054;BME280;23859;50.672;7.164;2023-12-20T06:36:55;36139.22;;;-140.95;79.13
38054;BME280;23859;50.672;7.164;2023-12-20T06:39:21;36141.22;;;-140.95;79.09
38054;BME280;23859;50.672;7.164;2023-12-20T06:41:48;36125.16;;;-140.95;78.95
38054;BME280;23859;50.672;7.164;2023-12-20T06:44:14;36145.25;;;-140.95;79.63
38054;BME280;23859;50.672;7.164;2023-12-20T06:46:40;36097.03;;;-140.95;79.03
38054;BME280;23859;50.672;7.164;2023-12-20T06:49:06;36121.13;;;-140.95;79.41
38054;BME280;23859;50.672;7.164;2023-12-20T06:51:32;36109.09;;;-140.95;78.55
38054;BME280;23859;50.672;7.164;2023-12-20T06:53:59;36189.47;;;-140.95;79.54
38054;BME280;23859;50.672;7.164;2023-12-20T06:56:26;36093.00;;;-140.95;77.18
38054;BME280;23859;50.672;7.164;2023-12-20T06:58:52;36105.06;;;-140.95;76.64
38054;BME280;23859;50.672;7.164;2023-12-20T07:01:18;36060.88;;;-140.95;77.78
38054;BME280;23859;50.672;7.164;2023-12-20T07:03:44;36097.03;;;-140.95;76.21
38054;BME280;23859;50.672;7.164;2023-12-20T07:06:10;36089.00;;;-140.95;75.92
38054;BME280;23859;50.672;7.164;2023-12-20T07:08:36;36089.00;;;-140.95;75.52
38054;BME280;23859;50.672;7.164;2023-12-20T07:11:02;36105.06;;;-140.95;76.79
38054;BME280;23859;50.672;7.164;2023-12-20T07:13:29;36074.94;;;-140.95;76.92
38054;BME280;23859;50.672;7.164;2023-12-20T07:15:55;36125.16;;;-140.95;76.55
38054;BME280;23859;50.672;7.164;2023-12-20T07:18:21;36121.13;;;-140.95;76.04
38054;BME280;23859;50.672;7.164;2023-12-20T07:20:47;34425.63;;;-140.95;76.64
38054;BME280;23859;50.672;7.164;2023-12-20T07:23:13;36086.97;;;-140.95;77.43
38054;BME280;23859;50.672;7.164;2023-12-20T07:25:39;36084.97;;;-140.95;75.95
38054;BME280;23859;50.672;7.164;2023-12-20T07:28:08;36101.03;;;-140.95;76.16
38054;BME280;23859;50.672;7.164;2023-12-20T07:30:37;36072.91;;;-140.95;76.40
38054;BME280;23859;50.672;7.164;2023-12-20T07:33:05;36579.28;;;-140.95;76.24
38054;BME280;23859;50.672;7.164;2023-12-20T07:35:34;36089.00;;;-140.95;75.74
38054;BME280;23859;50.672;7.164;2023-12-20T07:38:02;36105.06;;;-140.95;76.24
38054;BME280;23859;50.672;7.164;2023-12-20T07:40:28;36101.03;;;-140.95;74.97
38054;BME280;23859;50.672;7.164;2023-12-20T07:42:54;36068.91;;;-140.95;74.72
38054;BME280;23859;50.672;7.164;2023-12-20T07:45:20;36078.94;;;-140.95;74.31
38054;BME280;23859;50.672;7.164;2023-12-20T07:47:47;36076.94;;;-140.95;75.36
38054;BME280;23859;50.672;7.164;2023-12-20T07:50:13;36109.09;;;-140.95;74.71
38054;BME280;23859;50.672;7.164;2023-12-20T07:52:39;36064.88;;;-140.95;73.08
38054;BME280;23859;50.672;7.164;2023-12-20T07:55:05;36099.03;;;-140.95;72.92
38054;BME280;23859;50.672;7.164;2023-12-20T07:57:32;36121.13;;;-140.95;72.49
38054;BME280;23859;50.672;7.164;2023-12-20T07:59:58;36121.13;;;-140.95;72.15
38054;BME280;23859;50.672;7.164;2023-12-20T08:02:24;36084.97;;;-140.95;73.35
38054;BME280;23859;50.672;7.164;2023-12-20T08:04:50;36084.97;;;-140.95;71.69
38054;BME280;23859;50.672;7.164;2023-12-20T08:07:16;36076.94;;;-140.95;71.82
38054;BME280;23859;50.672;7.164;2023-12-20T08:09:42;36064.88;;;-140.95;72.29
38054;BME280;23859;50.672;7.164;2023-12-20T08:12:12;36113.09;;;-140.95;72.06
38054;BME280;23859;50.672;7.164;2023-12-20T08:14:38;36060.88;;;-140.95;71.77
38054;BME280;23859;50.672;7.164;2023-12-20T08:17:04;36101.03;;;-140.95;71.87
38054;BME280;23859;50.672;7.164;2023-12-20T08:19:30;36095.03;;;-140.95;72.25
38054;BME280;23859;50.672;7.164;2023-12-20T08:21:56;36314.03;;;-140.95;72.49
38054;BME280;23859;50.672;7.164;2023-12-20T08:24:22;36058.84;;;-140.95;72.89
38054;BME280;23859;50.672;7.164;2023-12-20T08:26:48;36056.84;;;-140.95;70.92
38054;BME280;23859;50.672;7.164;2023-12-20T08:29:15;36084.97;;;-140.95;71.56
38054;BME280;23859;50.672;7.164;2023-12-20T08:31:41;36036.75;;;-140.95;71.85
38054;BME280;23859;50.672;7.164;2023-12-20T08:34:07;36060.88;;;-140.95;70.96
38054;BME280;23859;50.672;7.164;2023-12-20T08:36:35;36058.84;;;-140.95;70.68
38054;BME280;23859;50.672;7.164;2023-12-20T08:39:01;36048.81;;;-140.95;71.86
38054;BME280;23859;50.672;7.164;2023-12-20T08:41:29;36328.09;;;-140.95;69.60
38054;BME280;23859;50.672;7.164;2023-12-20T08:43:58;36089.00;;;-140.95;70.67
38054;BME280;23859;50.672;7.164;2023-12-20T08:46:27;36089.00;;;-140.95;70.17
38054;BME280;23859;50.672;7.164;2023-12-20T08:48:56;36032.72;;;-140.95;69.07
38054;BME280;23859;50.672;7.164;2023-12-20T08:51:22;36042.78;;;-140.95;68.45
38054;BME280;23859;50.672;7.164;2023-12-20T08:53:49;36050.81;;;-140.95;68.61
38054;BME280;23859;50.672;7.164;2023-12-20T08:56:16;36044.78;;;-140.95;67.80
38054;BME280;23859;50.672;7.164;2023-12-20T08:58:42;36032.72;;;-140.95;66.99
38054;BME280;23859;50.672;7.164;2023-12-20T09:01:08;36072.91;;;-140.95;68.87
38054;BME280;23859;50.672;7.164;2023-12-20T09:03:37;36291.94;;;-140.95;67.63
38054;BME280;23859;50.672;7.164;2023-12-20T09:06:03;36052.81;;;-140.95;69.39
38054;BME280;23859;50.672;7.164;2023-12-20T09:08:29;36000.59;;;-140.95;67.04
38054;BME280;23859;50.672;7.164;2023-12-20T09:10:58;36036.75;;;-140.95;68.70
38054;BME280;23859;50.672;7.164;2023-12-20T09:13:25;36024.69;;;-140.95;67.76
38054;BME280;23859;50.672;7.164;2023-12-20T09:15:57;36016.66;;;-140.95;67.58
38054;BME280;23859;50.672;7.164;2023-12-20T09:18:24;36024.69;;;-140.95;66.76
38054;BME280;23859;50.672;7.164;2023-12-20T09:20:53;35962.41;;;-140.95;66.63
38054;BME280;23859;50.672;7.164;2023-12-20T09:23:19;36008.63;;;-140.95;64.89
38054;BME280;23859;50.672;7.164;2023-12-20T09:25:45;35998.56;;;-140.95;64.41
38054;BME280;23859;50.672;7.164;2023-12-20T09:28:11;36002.59;;;-140.95;63.87
38054;BME280;23859;50.672;7.164;2023-12-20T09:30:37;35952.34;;;-140.95;65.43
38054;BME280;23859;50.672;7.164;2023-12-20T09:33:05;36119.13;;;-140.95;65.64
38054;BME280;23859;50.672;7.164;2023-12-20T09:35:33;35968.44;;;-140.95;64.00
38054;BME280;23859;50.672;7.164;2023-12-20T09:37:59;35950.34;;;-140.95;63.06
38054;BME280;23859;50.672;7.164;2023-12-20T09:40:28;35962.41;;;-140.95;62.90
38054;BME280;23859;50.672;7.164;2023-12-20T09:42:58;35944.31;;;-140.95;62.65
38054;BME280;23859;50.672;7.164;2023-12-20T09:45:27;35976.47;;;-140.95;62.79
38054;BME280;23859;50.672;7.164;2023-12-20T09:47:54;35944.31;;;-140.95;62.72
38054;BME280;23859;50.672;7.164;2023-12-20T09:50:23;36004.59;;;-140.95;61.82
38054;BME280;23859;50.672;7.164;2023-12-20T09:52:53;35998.56;;;-140.95;62.71
38054;BME280;23859;50.672;7.164;2023-12-20T09:55:22;35968.44;;;-140.95;63.50
38054;BME280;23859;50.672;7.164;2023-12-20T09:57:49;35972.44;;;-140.95;63.11
38054;BME280;23859;50.672;7.164;2023-12-20T10:00:15;36024.69;;;-140.95;63.17
38054;BME280;23859;50.672;7.164;2023-12-20T10:03:03;36020.69;;;-140.95;64.06
38054;BME280;23859;50.672;7.164;2023-12-20T10:05:33;36012.63;;;-140.95;64.21
38054;BME280;23859;50.672;7.164;2023-12-20T10:08:00;36002.59;;;-140.95;64.61
38054;BME280;23859;50.672;7.164;2023-12-20T10:13:33;35998.56;;;-140.95;63.72
38054;BME280;23859;50.672;7.164;2023-12-20T10:16:00;36004.59;;;-140.95;64.49
38054;BME280;23859;50.672;7.164;2023-12-20T10:18:28;35988.53;;;-140.95;65.21
38054;BME280;23859;50.672;7.164;2023-12-20T10:20:57;35992.53;;;-140.95;66.50
38054;BME280;23859;50.672;7.164;2023-12-20T10:23:23;36000.59;;;-140.95;66.53
38054;BME280;23859;50.672;7.164;2023-12-20T10:25:59;35982.50;;;-140.95;63.70
38054;BME280;23859;50.672;7.164;2023-12-20T10:28:26;36243.72;;;-140.95;63.95
38054;BME280;23859;50.672;7.164;2023-12-20T10:30:55;36020.69;;;-140.95;64.12
38054;BME280;23859;50.672;7.164;2023-12-20T10:33:28;36028.72;;;-140.95;64.67
38054;BME280;23859;50.672;7.164;2023-12-20T10:35:55;36052.81;;;-140.95;64.40
38054;BME280;23859;50.672;7.164;2023-12-20T10:38:21;36000.59;;;-140.95;64.67
38054;BME280;23859;50.672;7.164;2023-12-20T10:40:48;36014.66;;;-140.95;63.70
38054;BME280;23859;50.672;7.164;2023-12-20T10:43:15;36028.72;;;-140.95;64.63
38054;BME280;23859;50.672;7.164;2023-12-20T10:45:44;36006.59;;;-140.95;64.24
38054;BME280;23859;50.672;7.164;2023-12-20T10:48:13;35984.50;;;-140.95;64.56
38054;BME280;23859;50.672;7.164;2023-12-20T10:50:41;35960.41;;;-140.95;64.45
38054;BME280;23859;50.672;7.164;2023-12-20T10:53:08;35958.38;;;-140.95;63.81
38054;BME280;23859;50.672;7.164;2023-12-20T10:55:36;35940.31;;;-140.95;64.78
38054;BME280;23859;50.672;7.164;2023-12-20T10:58:08;35986.53;;;-140.95;63.72
38054;BME280;23859;50.672;7.164;2023-12-20T11:00:39;35956.38;;;-140.95;64.07
38054;BME280;23859;50.672;7.164;2023-12-20T11:03:09;35956.38;;;-140.95;64.22
38054;BME280;23859;50.672;7.164;2023-12-20T11:08:16;35996.56;;;-140.95;64.80
38054;BME280;23859;50.672;7.164;2023-12-20T11:11:03;36010.63;;;-140.95;64.40
38054;BME280;23859;50.672;7.164;2023-12-20T11:13:34;35950.34;;;-140.95;63.53
38054;BME280;23859;50.672;7.164;2023-12-20T11:16:02;35928.25;;;-140.95;64.20
38054;BME280;23859;50.672;7.164;2023-12-20T11:18:29;35930.25;;;-140.95;63.46
38054;BME280;23859;50.672;7.164;2023-12-20T11:21:04;35918.19;;;-140.95;64.10
38054;BME280;23859;50.672;7.164;2023-12-20T11:23:31;35952.34;;;-140.95;63.64
38054;BME280;23859;50.672;7.164;2023-12-20T11:26:00;36205.53;;;-140.95;63.62
38054;BME280;23859;50.672;7.164;2023-12-20T11:28:27;35960.41;;;-140.95;63.47
38054;BME280;23859;50.672;7.164;2023-12-20T11:30:57;35938.28;;;-140.95;63.18
38054;BME280;23859;50.672;7.164;2023-12-20T11:33:31;35966.44;;;-140.95;63.74
38054;BME280;23859;50.672;7.164;2023-12-20T11:35:58;35986.53;;;-140.95;63.02
38054;BME280;23859;50.672;7.164;2023-12-20T11:38:25;35968.44;;;-140.95;61.99
38054;BME280;23859;50.672;7.164;2023-12-20T11:40:54;35998.56;;;-140.95;63.54
38054;BME280;23859;50.672;7.164;2023-12-20T11:43:36;35986.53;;;-140.95;64.40
38054;BME280;23859;50.672;7.164;2023-12-20T11:46:11;35994.56;;;-140.95;64.11
38054;BME280;23859;50.672;7.164;2023-12-20T11:48:38;35984.50;;;-140.95;64.64
38054;BME280;23859;50.672;7.164;2023-12-20T11:51:12;35996.56;;;-140.95;65.89
38054;BME280;23859;50.672;7.164;2023-12-20T11:53:40;35982.50;;;-140.95;64.17
38054;BME280;23859;50.672;7.164;2023-12-20T11:56:08;35996.56;;;-140.95;64.89
38054;BME280;23859;50.672;7.164;2023-12-20T11:58:34;36279.88;;;-140.95;63.62
38054;BME280;23859;50.672;7.164;2023-12-20T12:01:01;36328.09;;;-140.95;63.00
38054;BME280;23859;50.672;7.164;2023-12-20T12:03:33;35962.41;;;-140.95;63.57
38054;BME280;23859;50.672;7.164;2023-12-20T12:05:59;35964.41;;;-140.95;63.27
38054;BME280;23859;50.672;7.164;2023-12-20T12:08:26;35984.50;;;-140.95;64.49
38054;BME280;23859;50.672;7.164;2023-12-20T12:10:52;35956.38;;;-140.95;63.67
38054;BME280;23859;50.672;7.164;2023-12-20T12:13:19;35968.44;;;-140.95;64.74
38054;BME280;23859;50.672;7.164;2023-12-20T12:15:45;35924.22;;;-140.95;62.96
38054;BME280;23859;50.672;7.164;2023-12-20T12:18:15;35934.28;;;-140.95;63.50
38054;BME280;23859;50.672;7.164;2023-12-20T12:20:41;35944.31;;;-140.95;63.17
38054;BME280;23859;50.672;7.164;2023-12-20T12:23:07;35920.22;;;-140.95;63.29
38054;BME280;23859;50.672;7.164;2023-12-20T12:25:36;35932.28;;;-140.95;62.31
38054;BME280;23859;50.672;7.164;2023-12-20T12:28:08;35924.22;;;-140.95;61.58
38054;BME280;23859;50.672;7.164;2023-12-20T12:30:34;35886.06;;;-140.95;62.63
38054;BME280;23859;50.672;7.164;2023-12-20T12:33:03;35900.13;;;-140.95;61.60
38054;BME280;23859;50.672;7.164;2023-12-20T12:35:29;35902.13;;;-140.95;62.32
38054;BME280;23859;50.672;7.164;2023-12-20T12:37:56;35928.25;;;-140.95;61.99
38054;BME280;23859;50.672;7.164;2023-12-20T12:40:25;35904.13;;;-140.95;62.01
38054;BME280;23859;50.672;7.164;2023-12-20T12:42:54;35940.31;;;-140.95;61.35
38054;BME280;23859;50.672;7.164;2023-12-20T12:45:22;35936.28;;;-140.95;61.50